Floriston, CA

2:05 PM PDT on April 19, 2015 (GMT -0700)
MesoWest | | Change Station
CLOSE
Current Station
Personal Weather Station
Location: Floriston, CA
Elevation: 5295 ft
Nearby Weather Stations

Elev 5295 ft 39.40 °N, 120.02 °W | Updated 34 minutes ago

Clear
Clear
67 °F
Feels Like 67 °F
N
10
Wind Variable Wind from North
Gusts 16.0 mph

Today
High -- | Low -- °F
--% Chance of Precip.
Yesterday
High -- | Low -- °F
Precip. -- in
6:17 AM 7:41 PM
New Moon, 2% visible
Pressure 30.09 in
Visibility 10.0 miles
Clouds Few 7000 ft
Few 23000 ft
Dew Point 17 °F
Humidity 14%
Rainfall in
Snow Depth Not available.
UV 10 out of 12
Pollen 10.40 out of 12
Air Quality Not available.
Flu Activity Sporadic
METAR KTRK 192045Z COR 18007KT 130V220 10SM FEW070 FEW230 19/M07 A3009 RMK NOSPECI

More Conditions Fewer Conditions

Pressure 30.09 in
Visibility 10.0 miles
Clouds Few 7000 ft
Few 23000 ft
Dew Point 17 °F
Humidity 14%
Rainfall in
Snow Depth Not available.
UV 10 out of 12
Pollen 10.40 out of 12
Air Quality Not available.
Flu Activity Sporadic
METAR KTRK 192045Z COR 18007KT 130V220 10SM FEW070 FEW230 19/M07 A3009 RMK NOSPECI

More Conditions Fewer Conditions

10-Day Weather Forecast

Almanac

Astronomy

Apr. 19, 2015 Rise Set
Actual Time
Civil Twilight
Nautical Twilight
Astronomical Twilight
Moon
Length of Visible Light
Length of Day
Tomorrow will be .
, % of the Moon is Illuminated

Today's Extremes

State Highs State Lows

Community

WunderPhotos

Upload Photos

1,814,980 photos uploaded!

WunderBlogs® & News

Nearby

Air Quality

  Air Quality AQ Index Pollutant
Not available.

Snow Depth

Station Depth Elevation

Earthquake Activity

City Distance Mag. Time & Date
Minimum magnitude displayed is 2.5.

Coastal Water Temperatures

Place Temperature

Stations

Nearby Weather Stations

Station Location Temp. Windchill Dew Point Humidity Wind Precip. Elev Updated Type